Time;durP1;ratioP1;P1;durP2;ratioP2;P2;SDS_P1;SDS_P2;PMS_P1;PMS_P2;Temp;Humidity;BMP_temperature;BMP_pressure;BME280_temperature;BME280_humidity;BME280_pressure;Samples;Min_cycle;Max_cycle;Signal;HPM_P1;HPM_P2
2022/05/24 00:01:19;;;;;;;21.90;13.90;;;;;;;14.55;97.63;99960.94;4996304;28;20083;-87
2022/05/24 00:03:44;;;;;;;23.90;14.70;;;;;;;14.63;97.01;99959.97;4996813;28;20040;-87
2022/05/24 00:06:11;;;;;;;22.42;13.65;;;;;;;14.62;96.97;99962.78;4985726;28;20206;-87
2022/05/24 00:08:37;;;;;;;22.60;15.30;;;;;;;14.62;97.22;99957.56;4987149;28;20435;-85
2022/05/24 00:11:02;;;;;;;22.98;14.90;;;;;;;14.59;97.17;99954.34;5005680;28;20041;-87
2022/05/24 00:13:28;;;;;;;19.98;13.93;;;;;;;14.57;97.49;99956.34;4983477;28;20105;-86
2022/05/24 00:15:53;;;;;;;21.92;14.13;;;;;;;14.50;98.14;99952.13;4987445;28;20057;-86
2022/05/24 00:18:23;;;;;;;20.15;12.23;;;;;;;14.51;98.37;99949.31;4986061;28;20030;-87
2022/05/24 00:20:58;;;;;;;28.23;16.52;;;;;;;14.54;97.97;99943.72;4995588;28;20065;-86
2022/05/24 00:23:25;;;;;;;22.33;13.10;;;;;;;14.52;98.43;99944.91;4981800;28;20391;-87
2022/05/24 00:25:54;;;;;;;26.33;14.25;;;;;;;14.49;98.78;99943.50;4990343;28;20656;-87
2022/05/24 00:28:21;;;;;;;23.60;15.52;;;;;;;14.50;99.28;99946.91;4997506;28;20081;-87
2022/05/24 00:30:48;;;;;;;23.15;15.15;;;;;;;14.49;99.37;99940.09;4989969;28;20033;-87
2022/05/24 00:33:14;;;;;;;26.60;17.98;;;;;;;14.51;98.75;99936.28;5007881;28;20117;-87
2022/05/24 00:35:41;;;;;;;26.40;16.90;;;;;;;14.54;99.16;99929.84;4986636;28;20044;-88
2022/05/24 00:38:10;;;;;;;24.80;14.68;;;;;;;14.52;99.70;99924.84;4994718;28;20160;-88
2022/05/24 00:40:45;;;;;;;20.88;13.55;;;;;;;14.52;99.87;99930.06;4994685;28;20102;-87
2022/05/24 00:43:27;;;;;;;20.52;13.65;;;;;;;14.52;100.00;99935.28;4986215;28;20058;-88
2022/05/24 00:45:57;;;;;;;24.25;15.63;;;;;;;14.53;100.00;99934.25;4992466;28;20040;-88
2022/05/24 00:48:29;;;;;;;24.75;14.85;;;;;;;14.52;100.00;99937.91;5002649;28;20029;-88
2022/05/24 00:50:55;;;;;;;30.40;18.60;;;;;;;14.54;100.00;99930.66;4978849;28;20037;-87
2022/05/24 00:53:40;;;;;;;26.77;17.38;;;;;;;14.54;100.00;99935.88;4989884;28;20041;-88
2022/05/24 00:56:13;;;;;;;28.20;18.63;;;;;;;14.51;100.00;99936.28;4991189;28;20091;-87
2022/05/24 00:58:39;;;;;;;;;;;;;;;14.51;100.00;99928.44;4992620;28;20084;-87
2022/05/24 01:01:31;;;;;;;28.33;16.75;;;;;;;14.51;100.00;99923.22;4976547;28;19917;-88
2022/05/24 01:03:56;;;;;;;32.15;19.00;;;;;;;14.54;100.00;99932.44;4973621;28;20041;-88
2022/05/24 01:06:24;;;;;;;29.60;19.63;;;;;;;14.47;99.85;99934.28;4985259;28;20038;-87
2022/05/24 01:08:52;;;;;;;25.92;17.35;;;;;;;14.47;100.00;99945.50;5012144;28;20559;-88
2022/05/24 01:11:19;;;;;;;28.58;18.02;;;;;;;14.50;100.00;99944.31;5002548;28;20029;-88
2022/05/24 01:13:45;;;;;;;30.13;18.60;;;;;;;14.45;99.52;99942.31;4971344;28;20026;-88
2022/05/24 01:16:12;;;;;;;26.70;16.48;;;;;;;14.45;99.56;99942.31;4990622;28;20461;-87
2022/05/24 01:18:43;;;;;;;26.85;16.00;;;;;;;14.43;99.87;99941.72;5007955;28;20138;-88
2022/05/24 01:21:12;;;;;;;29.63;18.70;;;;;;;14.42;99.92;99947.91;4991127;28;20030;-88
2022/05/24 01:23:47;;;;;;;24.27;15.07;;;;;;;14.39;100.00;99933.50;4993155;28;20034;-88
2022/05/24 01:26:34;;;;;;;29.15;18.23;;;;;;;14.39;99.34;99940.47;4991305;28;20041;-87
2022/05/24 01:29:03;;;;;;;29.05;16.75;;;;;;;14.38;99.18;99951.94;5001221;28;20165;-88
2022/05/24 01:36:09;;;;;;;28.63;18.30;;;;;;;14.32;98.02;99956.16;4977292;28;20042;-87
2022/05/24 01:37:00;;;;;;;18.48;11.77;;;;;;;14.19;94.72;99946.50;5004278;28;20026;-87
2022/05/24 01:39:27;;;;;;;18.27;11.23;;;;;;;14.15;94.51;99947.94;5002512;28;20569;-86
2022/05/24 01:41:53;;;;;;;24.23;11.10;;;;;;;14.11;92.99;99938.06;4990822;28;20107;-88
2022/05/24 01:44:28;;;;;;;16.70;9.95;;;;;;;13.92;94.35;99937.88;4988911;28;20080;-88
2022/05/24 01:46:54;;;;;;;19.67;10.32;;;;;;;13.89;94.04;99947.91;4985914;28;20532;-88
2022/05/24 01:49:41;;;;;;;19.83;9.82;;;;;;;13.92;93.94;99950.09;5001344;28;20061;-87
2022/05/24 01:52:23;;;;;;;20.85;9.90;;;;;;;13.87;94.18;99953.31;5006389;28;20030;-87
2022/05/24 01:55:03;;;;;;;18.58;9.57;;;;;;;13.79;94.28;99940.47;4992561;28;20041;-86
2022/05/24 01:57:40;;;;;;;17.60;10.10;;;;;;;13.78;93.95;99937.03;5004537;28;21069;-87
2022/05/24 02:00:09;;;;;;;18.55;9.98;;;;;;;13.75;94.54;99947.06;5003143;28;20105;-86
2022/05/24 02:02:40;;;;;;;18.33;9.50;;;;;;;13.73;94.50;99947.28;4986190;28;20057;-88
2022/05/24 02:05:06;;;;;;;18.13;9.30;;;;;;;13.67;94.83;99931.63;5007731;28;20030;-87
2022/05/24 02:07:33;;;;;;;19.73;10.65;;;;;;;13.65;94.83;99928.41;4983780;28;20037;-87
2022/05/24 02:09:58;;;;;;;22.35;9.13;;;;;;;13.63;95.05;99926.00;5008214;28;20078;-87
2022/05/24 02:12:38;;;;;;;18.17;9.68;;;;;;;13.54;94.65;99927.16;4979580;28;20038;-87
2022/05/24 02:15:07;;;;;;;18.40;7.85;;;;;;;13.54;94.03;99938.41;4970422;28;20042;-88
2022/05/24 02:17:54;;;;;;;18.45;7.95;;;;;;;13.43;92.64;99937.16;5006126;28;20026;-86
2022/05/24 02:20:49;;;;;;;14.07;7.57;;;;;;;13.35;93.40;99946.94;5013397;28;20057;-87
2022/05/24 02:23:17;;;;;;;17.55;6.43;;;;;;;13.30;94.01;99951.88;4992095;28;20061;-87
2022/05/24 02:25:47;;;;;;;19.20;7.70;;;;;;;13.28;93.99;99954.72;4980857;28;20035;-87
2022/05/24 02:28:14;;;;;;;17.58;7.00;;;;;;;13.26;93.76;99954.09;4978620;28;20073;-87
2022/05/24 02:30:45;;;;;;;13.85;6.25;;;;;;;13.29;92.61;99953.69;4998811;28;20026;-88
2022/05/24 02:33:11;;;;;;;12.45;6.53;;;;;;;13.25;93.00;99955.09;4978942;28;20033;-87
2022/05/24 02:35:37;;;;;;;10.90;6.70;;;;;;;13.27;92.88;99947.09;4993389;28;20029;-87
2022/05/24 02:38:03;;;;;;;13.18;7.00;;;;;;;13.23;92.63;99949.28;4992575;28;20041;-87
2022/05/24 02:43:12;;;;;;;13.70;7.55;;;;;;;13.10;93.78;99938.81;4994155;28;20033;-88
2022/05/24 02:45:38;;;;;;;13.15;6.47;;;;;;;13.08;93.41;99935.59;4988967;28;20057;-88
2022/05/24 02:48:04;;;;;;;9.98;6.05;;;;;;;13.07;93.33;99926.16;4987243;28;20021;-88
2022/05/24 02:50:30;;;;;;;16.38;6.75;;;;;;;13.04;93.24;99922.16;4989090;28;20034;-88
2022/05/24 02:52:56;;;;;;;14.13;6.63;;;;;;;13.03;92.49;99917.94;4995753;28;20083;-88
2022/05/24 02:55:23;;;;;;;13.23;5.78;;;;;;;12.98;92.64;99915.13;5008496;28;20037;-88
2022/05/24 02:57:48;;;;;;;10.25;5.30;;;;;;;12.98;93.75;99913.31;5003211;28;20545;-88
2022/05/24 03:00:22;;;;;;;12.27;6.70;;;;;;;12.99;93.67;99906.31;4994322;28;20045;-88
2022/05/24 03:02:49;;;;;;;12.18;6.18;;;;;;;12.93;93.31;99913.09;4970175;28;20052;-88
2022/05/24 03:05:21;;;;;;;14.65;5.72;;;;;;;12.97;93.59;99910.91;4987796;28;20040;-88
2022/05/24 03:10:32;;;;;;;14.57;6.82;;;;;;;13.00;92.98;99916.53;4992633;28;20064;-88
2022/05/24 03:15:44;;;;;;;15.13;6.60;;;;;;;12.91;92.89;99916.91;4998434;28;20030;-88
2022/05/24 03:18:12;;;;;;;14.52;6.30;;;;;;;12.85;93.84;99919.25;4979263;28;20030;-88
2022/05/24 03:20:38;;;;;;;16.90;6.32;;;;;;;12.89;93.95;99929.28;4993318;28;20037;-89
2022/05/24 03:23:04;;;;;;;11.98;6.20;;;;;;;12.92;93.41;99927.13;4995745;28;20368;-88
2022/05/24 03:25:31;;;;;;;19.30;7.40;;;;;;;12.90;93.17;99926.47;5002909;28;20025;-88
2022/05/24 03:27:58;;;;;;;13.80;6.00;;;;;;;12.91;92.95;99932.50;4992090;28;20125;-88
2022/05/24 03:30:24;;;;;;;15.32;6.93;;;;;;;12.86;92.84;99940.88;4977533;28;20493;-88
2022/05/24 03:32:50;;;;;;;14.45;7.43;;;;;;;12.81;92.39;99919.84;4986381;28;20056;-88
2022/05/24 03:35:16;;;;;;;13.40;6.93;;;;;;;12.80;93.13;99921.63;5007954;28;20121;-88
2022/05/24 03:37:41;;;;;;;14.82;6.40;;;;;;;12.79;92.91;99925.25;4987963;28;20068;-88
2022/05/24 03:40:11;;;;;;;15.18;7.10;;;;;;;12.81;93.14;99917.25;4996792;28;20025;-89
2022/05/24 03:42:37;;;;;;;16.58;7.00;;;;;;;12.83;93.46;99925.66;4977144;28;20557;-88
2022/05/24 03:45:08;;;;;;;11.40;6.15;;;;;;;12.79;92.95;99930.44;4991692;28;20482;-87
2022/05/24 03:47:35;;;;;;;19.33;6.82;;;;;;;12.79;92.46;99927.00;4996609;28;20052;-87
2022/05/24 03:50:01;;;;;;;18.35;6.55;;;;;;;12.76;92.22;99945.63;4980132;28;20041;-88
2022/05/24 03:52:26;;;;;;;14.27;5.72;;;;;;;12.71;92.42;99948.00;5010674;28;20068;-88
2022/05/24 03:54:51;;;;;;;11.07;5.10;;;;;;;12.66;92.68;99944.16;4972106;28;20045;-87
2022/05/24 04:00:02;;;;;;;13.27;4.70;;;;;;;12.68;93.56;99953.56;5015340;28;20037;-88
2022/05/24 04:02:38;;;;;;;7.60;4.38;;;;;;;12.66;93.39;99962.38;5015160;28;20056;-87
2022/05/24 04:05:03;;;;;;;12.38;5.30;;;;;;;12.70;92.50;99964.59;4993592;28;20063;-86
2022/05/24 04:07:29;;;;;;;9.38;4.75;;;;;;;12.68;92.54;99971.75;4987735;28;20040;-87
2022/05/24 04:09:54;;;;;;;9.90;4.97;;;;;;;12.61;91.72;99977.72;5013911;28;20080;-87
2022/05/24 04:12:20;;;;;;;11.50;4.18;;;;;;;12.62;91.63;99981.13;4993378;28;20550;-87
2022/05/24 04:14:46;;;;;;;13.60;4.32;;;;;;;12.60;92.13;99989.16;4994400;28;20092;-87
2022/05/24 04:17:11;;;;;;;8.38;4.03;;;;;;;12.58;92.30;99985.09;4991147;28;20115;-87
2022/05/24 04:19:37;;;;;;;15.00;5.15;;;;;;;12.59;92.20;100000.53;4995046;28;20057;-87
2022/05/24 04:22:03;;;;;;;13.02;4.38;;;;;;;12.60;91.38;100001.31;4970909;28;20025;-87
2022/05/24 04:24:30;;;;;;;13.05;4.25;;;;;;;12.59;91.62;100003.13;4992681;28;20037;-87
2022/05/24 04:26:55;;;;;;;10.00;3.67;;;;;;;12.64;90.39;100011.19;4999321;28;20026;-87
2022/05/24 04:29:21;;;;;;;9.65;3.50;;;;;;;12.63;89.94;100011.34;5004637;28;20632;-87
2022/05/24 04:31:46;;;;;;;9.80;3.55;;;;;;;12.57;90.66;100010.31;4981918;28;20022;-87
2022/05/24 04:34:12;;;;;;;15.73;4.03;;;;;;;12.66;89.66;100003.19;5012764;28;20478;-87
2022/05/24 04:36:38;;;;;;;11.30;4.13;;;;;;;12.61;90.44;100001.13;4991963;28;20041;-87
2022/05/24 04:39:03;;;;;;;9.77;2.90;;;;;;;12.58;91.13;99985.94;4991636;28;20080;-87
2022/05/24 04:44:13;;;;;;;8.40;2.92;;;;;;;12.60;90.83;99996.94;5003925;28;20124;-87
2022/05/24 04:49:23;;;;;;;11.55;2.80;;;;;;;12.70;90.42;100009.63;5000318;28;20065;-86
2022/05/24 04:51:53;;;;;;;6.00;2.40;;;;;;;12.63;89.18;100011.34;4985276;28;20073;-88
2022/05/24 04:54:18;;;;;;;15.02;3.20;;;;;;;12.56;88.36;100016.50;4990766;28;20030;-88
2022/05/24 04:56:44;;;;;;;7.97;3.33;;;;;;;12.61;89.26;100023.75;4993032;28;20045;-87
2022/05/24 04:59:09;;;;;;;10.50;2.05;;;;;;;12.54;90.11;100012.47;5009438;28;20033;-88
2022/05/24 05:01:35;;;;;;;6.45;2.40;;;;;;;12.52;90.30;100030.06;4974274;28;20037;-88
2022/05/24 05:04:01;;;;;;;9.52;2.50;;;;;;;12.51;89.02;100031.88;5008412;28;20037;-88
2022/05/24 05:06:26;;;;;;;7.28;2.85;;;;;;;12.50;89.01;100040.66;4972138;28;20045;-87
2022/05/24 05:08:52;;;;;;;8.68;2.03;;;;;;;12.54;89.16;100048.88;4989326;28;20030;-87
2022/05/24 05:11:17;;;;;;;12.68;2.65;;;;;;;12.50;88.80;100047.66;4968544;28;20034;-88
2022/05/24 05:13:43;;;;;;;9.13;2.95;;;;;;;12.52;88.78;100051.66;4973290;28;20018;-88
2022/05/24 05:16:08;;;;;;;9.27;1.90;;;;;;;12.44;89.82;100050.00;4992741;28;20403;-89
2022/05/24 05:18:34;;;;;;;4.35;2.10;;;;;;;12.41;90.01;100059.97;4970442;28;20029;-89
2022/05/24 05:21:00;;;;;;;7.55;2.35;;;;;;;12.36;88.96;100057.94;4991423;28;20041;-88
2022/05/24 05:23:26;;;;;;;10.70;1.75;;;;;;;12.40;87.58;100064.38;4987972;28;20030;-86
2022/05/24 05:25:51;;;;;;;10.88;2.47;;;;;;;12.37;87.15;100072.53;4994131;28;20501;-88
2022/05/24 05:28:18;;;;;;;7.65;1.83;;;;;;;12.33;88.79;100083.50;4989430;28;20034;-87
2022/05/24 05:33:31;;;;;;;8.65;2.33;;;;;;;12.16;88.65;100094.13;5002756;28;20022;-89
2022/05/24 05:35:57;;;;;;;9.98;1.90;;;;;;;12.10;90.01;100100.06;4971869;28;20034;-89
2022/05/24 05:38:23;;;;;;;10.65;2.20;;;;;;;12.09;91.18;100111.41;4995129;28;20038;-89
2022/05/24 05:40:53;;;;;;;9.73;1.83;;;;;;;11.97;89.78;100105.88;4987805;28;20034;-88
2022/05/24 05:43:21;;;;;;;17.20;3.05;;;;;;;11.99;90.62;100106.50;4973599;28;20040;-88
2022/05/24 05:45:54;;;;;;;8.98;2.00;;;;;;;11.88;91.02;100105.19;4971477;28;20108;-88
2022/05/24 05:48:21;;;;;;;9.52;2.13;;;;;;;11.82;91.39;100105.88;4995870;28;20030;-88
2022/05/24 05:50:47;;;;;;;8.48;2.83;;;;;;;11.87;91.88;100110.53;4999855;28;20032;-88
2022/05/24 05:53:17;;;;;;;10.15;1.73;;;;;;;11.96;90.96;100117.28;4983070;28;20022;-88
2022/05/24 05:55:43;;;;;;;6.95;3.05;;;;;;;11.85;91.23;100122.91;5004491;28;20411;-88
2022/05/24 05:58:10;;;;;;;7.75;1.63;;;;;;;11.94;91.42;100129.66;4989943;28;20022;-88
2022/05/24 06:00:36;;;;;;;7.07;2.00;;;;;;;11.92;91.55;100126.41;5003156;28;20125;-88
2022/05/24 06:03:02;;;;;;;10.73;2.40;;;;;;;11.86;91.86;100137.50;5014788;28;20045;-88
2022/05/24 06:05:27;;;;;;;7.70;2.03;;;;;;;11.90;92.29;100132.78;5001969;28;20071;-88
2022/05/24 06:07:54;;;;;;;7.43;2.42;;;;;;;12.02;92.68;100149.53;4991578;28;20033;-88
2022/05/24 06:10:20;;;;;;;9.18;1.88;;;;;;;11.86;92.17;100156.47;4999025;28;20441;-87
2022/05/24 06:12:45;;;;;;;8.73;1.90;;;;;;;11.90;92.20;100143.97;4988400;28;20026;-88
2022/05/24 06:15:11;;;;;;;11.73;2.13;;;;;;;11.88;92.11;100149.34;4992857;28;20100;-88
2022/05/24 06:17:49;;;;;;;8.88;1.95;;;;;;;11.89;92.91;100144.94;4987052;28;20069;-87
2022/05/24 06:20:20;;;;;;;12.25;1.70;;;;;;;11.95;92.39;100151.25;4979514;28;20037;-87
2022/05/24 06:22:46;;;;;;;7.07;2.25;;;;;;;12.02;91.99;100152.94;4993349;28;20034;-87
2022/05/24 06:25:15;;;;;;;6.78;2.20;;;;;;;12.07;92.27;100158.41;4976588;28;20026;-88
2022/05/24 06:27:41;;;;;;;7.65;2.47;;;;;;;11.96;92.30;100158.03;4988560;28;20418;-88
2022/05/24 06:30:07;;;;;;;6.80;1.80;;;;;;;11.92;92.61;100167.19;5006126;28;20030;-88
2022/05/24 06:32:32;;;;;;;11.73;3.47;;;;;;;11.91;91.04;100155.19;5010957;28;20030;-88
2022/05/24 06:34:58;;;;;;;9.40;1.88;;;;;;;11.90;91.96;100161.34;5001678;28;20379;-89
2022/05/24 06:37:24;;;;;;;6.30;2.30;;;;;;;11.93;93.13;100169.59;5009027;28;20033;-89
2022/05/24 06:39:52;;;;;;;7.70;1.90;;;;;;;12.09;93.13;100173.78;5022943;28;20029;-88
2022/05/24 06:42:18;;;;;;;7.97;2.40;;;;;;;12.10;92.30;100180.59;5006157;28;20065;-88
2022/05/24 06:44:43;;;;;;;10.15;2.38;;;;;;;12.26;91.69;100190.81;4988184;28;20066;-88
2022/05/24 06:47:09;;;;;;;4.85;2.00;;;;;;;12.29;91.63;100194.03;4986649;28;20513;-89
2022/05/24 06:49:36;;;;;;;6.63;2.88;;;;;;;12.44;92.19;100195.59;4995312;28;20548;-88
2022/05/24 06:52:02;;;;;;;6.43;2.72;;;;;;;12.48;91.08;100203.84;4984283;28;20133;-88
2022/05/24 06:54:29;;;;;;;8.65;2.15;;;;;;;12.57;90.49;100204.56;4988595;28;20038;-87
2022/05/24 06:56:55;;;;;;;12.27;1.95;;;;;;;12.62;90.49;100202.19;5005300;28;20041;-89
2022/05/24 07:04:57;;;;;;;7.75;1.95;;;;;;;12.74;89.22;100210.34;4990546;28;20224;-87
2022/05/24 07:07:24;;;;;;;5.97;2.20;;;;;;;12.84;87.71;100218.63;4999525;28;21706;-87
2022/05/24 07:09:51;;;;;;;6.82;2.03;;;;;;;12.94;86.99;100218.34;4976131;28;20041;-89
2022/05/24 07:12:18;;;;;;;6.63;1.95;;;;;;;13.05;86.05;100225.66;4990720;28;20030;-87
2022/05/24 07:14:43;;;;;;;7.43;2.08;;;;;;;13.31;85.94;100237.34;4999132;28;20034;-88
2022/05/24 07:17:09;;;;;;;6.13;1.60;;;;;;;13.89;82.77;100234.56;5012758;28;20029;-88
2022/05/24 07:19:35;;;;;;;6.70;2.47;;;;;;;13.98;81.99;100236.81;4977883;28;20030;-86
2022/05/24 07:22:00;;;;;;;6.82;2.00;;;;;;;14.41;81.24;100241.03;4992137;28;20030;-86
2022/05/24 07:24:28;;;;;;;8.45;2.20;;;;;;;14.75;79.23;100234.16;4989986;28;20029;-87
2022/05/24 07:26:53;;;;;;;5.75;2.53;;;;;;;14.70;79.02;100234.75;4999735;28;20466;-87
2022/05/24 07:29:20;;;;;;;9.68;2.40;;;;;;;14.78;79.18;100242.38;4990089;28;20036;-87
2022/05/24 07:31:45;;;;;;;6.70;2.28;;;;;;;14.43;78.01;100248.66;4976564;28;20045;-87
2022/05/24 07:34:11;;;;;;;9.50;2.00;;;;;;;14.28;78.44;100243.56;4990319;28;20026;-88
2022/05/24 07:36:36;;;;;;;7.55;2.17;;;;;;;14.39;78.25;100241.22;4978956;28;20307;-86
2022/05/24 07:39:03;;;;;;;12.27;2.03;;;;;;;15.49;76.52;100237.66;4988093;28;20045;-87
2022/05/24 07:46:57;;;;;;;6.95;2.10;;;;;;;16.80;69.60;100234.06;4991279;28;20040;-86
2022/05/24 07:49:23;;;;;;;6.82;1.98;;;;;;;17.52;69.00;100228.53;4994480;28;20394;-86
2022/05/24 07:51:48;;;;;;;6.68;2.53;;;;;;;18.02;65.72;100230.28;4992551;28;20033;-86
2022/05/24 07:54:14;;;;;;;6.60;1.92;;;;;;;18.49;65.28;100223.44;4989599;28;20064;-86
2022/05/24 07:56:42;;;;;;;6.45;2.13;;;;;;;18.24;63.55;100238.50;4988895;28;20072;-86
2022/05/24 07:59:08;;;;;;;11.30;2.45;;;;;;;18.23;61.82;100231.63;4990334;28;20281;-87
2022/05/24 08:01:34;;;;;;;6.43;2.15;;;;;;;17.44;64.44;100226.97;4975151;28;20618;-88
2022/05/24 08:04:00;;;;;;;14.07;2.00;;;;;;;17.07;66.08;100244.41;5004346;28;20059;-86
2022/05/24 08:06:25;;;;;;;5.63;1.83;;;;;;;16.81;64.44;100230.41;4990316;28;20044;-88
2022/05/24 08:08:51;;;;;;;6.40;1.55;;;;;;;16.48;66.28;100235.81;4988423;28;20033;-85
2022/05/24 08:11:16;;;;;;;11.00;1.73;;;;;;;16.23;67.92;100235.72;4993064;28;20683;-85
2022/05/24 08:13:42;;;;;;;7.25;2.10;;;;;;;15.87;69.72;100247.50;4993281;28;20522;-87
2022/05/24 08:16:07;;;;;;;5.35;1.92;;;;;;;16.34;67.67;100251.56;4987627;28;20392;-86
2022/05/24 08:18:33;;;;;;;5.65;1.60;;;;;;;16.90;66.01;100244.91;4975678;28;20038;-86
2022/05/24 08:20:59;;;;;;;5.00;1.58;;;;;;;16.50;68.45;100245.09;4988784;28;20493;-87
2022/05/24 08:23:27;;;;;;;7.38;1.83;;;;;;;16.18;69.11;100246.81;4973246;28;20022;-86
2022/05/24 08:25:54;;;;;;;6.07;1.90;;;;;;;16.04;68.28;100264.34;4991869;28;20111;-85
2022/05/24 08:28:20;;;;;;;3.95;1.80;;;;;;;15.79;68.56;100260.78;4992885;28;20509;-85
2022/05/24 08:30:47;;;;;;;8.75;1.73;;;;;;;15.50;68.54;100276.66;4984502;28;20127;-87
2022/05/24 08:33:15;;;;;;;3.78;1.52;;;;;;;15.63;68.08;100273.22;4987801;28;20033;-86
2022/05/24 08:35:42;;;;;;;5.53;1.30;;;;;;;16.45;66.54;100268.44;5006241;28;20037;-86
2022/05/24 08:38:09;;;;;;;4.22;1.50;;;;;;;17.37;62.07;100273.41;4988396;28;20417;-82
2022/05/24 08:40:39;;;;;;;5.95;1.10;;;;;;;18.25;61.39;100268.97;4991720;28;20100;-86
2022/05/24 08:43:45;;;;;;;3.30;1.10;;;;;;;18.75;57.37;100271.38;4987403;28;20041;-86
2022/05/24 08:49:14;;;;;;;4.00;0.95;;;;;;;17.38;59.84;100276.81;4987689;28;20033;-86
2022/05/24 08:51:49;;;;;;;10.82;1.10;;;;;;;16.58;61.48;100285.91;4975411;28;20048;-85
2022/05/24 08:54:25;;;;;;;4.50;1.02;;;;;;;16.05;63.39;100286.06;5004251;28;20034;-86
2022/05/24 08:56:57;;;;;;;4.15;1.08;;;;;;;15.89;63.41;100287.31;4999563;28;20494;-88
2022/05/24 08:59:43;;;;;;;3.13;0.88;;;;;;;15.81;64.38;100297.97;4971907;28;20052;-85
2022/05/24 09:02:09;;;;;;;4.60;1.00;;;;;;;15.80;65.09;100304.19;4986309;28;20517;-91
2022/05/24 09:04:35;;;;;;;3.25;0.75;;;;;;;16.12;64.63;100307.78;4972937;28;20026;-85
2022/05/24 09:07:26;;;;;;;3.67;0.88;;;;;;;16.10;64.18;100291.47;5000454;28;20375;-87
2022/05/24 09:10:19;;;;;;;6.60;0.98;;;;;;;16.53;62.69;100299.59;4986836;28;20035;-87
2022/05/24 09:13:09;;;;;;;3.97;1.17;;;;;;;17.69;59.05;100302.97;4984318;28;20401;-86
2022/05/24 09:15:53;;;;;;;4.45;0.90;;;;;;;18.31;56.11;100302.22;4988714;28;20037;-85
2022/05/24 09:18:29;;;;;;;2.53;1.00;;;;;;;18.85;56.76;100291.88;4984213;28;20026;-86
2022/05/24 09:20:55;;;;;;;2.22;0.65;;;;;;;19.47;55.30;100299.47;4987667;28;20097;-87
2022/05/24 09:23:25;;;;;;;5.70;1.13;;;;;;;18.47;55.66;100306.06;4987351;28;20743;-88
2022/05/24 09:25:59;;;;;;;2.67;0.90;;;;;;;17.76;57.60;100318.63;4969612;28;20395;-87
2022/05/24 09:28:46;;;;;;;3.28;1.45;;;;;;;17.45;59.36;100325.53;4998268;28;20038;-88
2022/05/24 09:31:39;;;;;;;1.27;0.95;;;;;;;17.15;60.24;100324.53;5001976;28;20026;-87
2022/05/24 09:34:19;;;;;;;2.97;0.90;;;;;;;17.29;61.22;100321.63;4992304;28;20022;-87
2022/05/24 09:37:03;;;;;;;5.47;1.02;;;;;;;18.43;59.84;100331.16;5000876;28;20104;-87
2022/05/24 09:39:55;;;;;;;10.63;1.00;;;;;;;17.86;57.56;100334.72;4982749;28;20030;-85
2022/05/24 09:42:30;;;;;;;3.85;1.10;;;;;;;17.54;57.87;100327.88;4986823;28;20121;-87
2022/05/24 09:45:15;;;;;;;2.97;1.05;;;;;;;17.37;58.99;100336.28;4972038;28;20134;-87
2022/05/24 09:47:43;;;;;;;3.50;0.82;;;;;;;17.26;58.07;100332.50;4973203;28;20029;-88
2022/05/24 09:50:18;;;;;;;3.03;1.00;;;;;;;17.49;59.69;100341.66;4973321;28;20484;-86
2022/05/24 09:53:02;;;;;;;3.33;1.00;;;;;;;18.40;56.96;100342.06;4965088;28;20042;-86
2022/05/24 09:55:48;;;;;;;7.30;0.80;;;;;;;18.68;53.29;100350.25;4975476;28;20054;-86
2022/05/24 09:58:22;;;;;;;5.40;0.93;;;;;;;18.69;52.61;100345.78;5005535;28;20038;-87
2022/05/24 10:01:11;;;;;;;3.20;0.73;;;;;;;18.96;53.36;100356.78;5007065;28;20034;-87
2022/05/24 10:03:46;;;;;;;5.70;1.00;;;;;;;18.88;53.70;100349.22;4976855;28;20454;-87
2022/05/24 10:06:30;;;;;;;5.57;1.25;;;;;;;19.14;53.01;100350.69;4969606;28;20788;-86
2022/05/24 10:08:58;;;;;;;4.53;1.00;;;;;;;19.26;52.97;100350.72;4988222;28;20042;-85
2022/05/24 10:11:42;;;;;;;3.75;1.30;;;;;;;18.99;53.89;100353.72;5003955;28;20061;-87
2022/05/24 10:14:24;;;;;;;6.93;1.05;;;;;;;19.05;54.65;100355.47;5000923;28;20030;-86
2022/05/24 10:17:01;;;;;;;4.65;0.90;;;;;;;19.50;51.97;100353.44;4992096;28;20598;-87
2022/05/24 10:19:46;;;;;;;2.33;0.90;;;;;;;19.32;51.93;100351.66;4989428;28;20042;-88
2022/05/24 10:22:11;;;;;;;4.65;1.25;;;;;;;19.06;52.59;100349.19;5001601;28;20537;-87
2022/05/24 10:24:55;;;;;;;2.28;0.90;;;;;;;18.79;52.39;100359.19;4969096;28;20109;-87
2022/05/24 10:27:59;;;;;;;5.43;0.95;;;;;;;18.44;52.29;100374.72;4984165;28;20402;-87
2022/05/24 10:30:31;;;;;;;4.43;1.33;;;;;;;18.08;52.43;100368.41;4985645;28;20053;-88
2022/05/24 10:40:10;;;;;;;2.88;0.90;;;;;;;17.82;53.54;100390.41;4951594;28;20784;-90
2022/05/24 10:43:13;;;;;;;3.47;1.23;;;;;;;17.45;54.83;100398.91;4988805;28;20584;-87
2022/05/24 10:46:08;;;;;;;4.78;1.30;;;;;;;17.65;53.80;100387.50;5003616;28;20046;-86
2022/05/24 10:48:44;;;;;;;7.65;1.13;;;;;;;17.65;54.04;100396.19;4990188;28;20117;-88
2022/05/24 10:51:13;;;;;;;2.85;0.90;;;;;;;17.97;53.92;100379.63;4988238;28;20038;-86
2022/05/24 10:54:02;;;;;;;4.15;1.35;;;;;;;18.11;54.13;100390.81;4990712;28;20120;-87
2022/05/24 10:56:50;;;;;;;4.40;1.05;;;;;;;18.17;53.99;100398.63;5005725;28;20044;-87
2022/05/24 10:59:41;;;;;;;2.38;0.90;;;;;;;18.23;54.64;100399.56;5006740;28;20092;-87
2022/05/24 11:02:14;;;;;;;2.40;0.70;;;;;;;18.19;52.76;100393.94;4984941;28;20115;-86
2022/05/24 11:04:59;;;;;;;4.40;0.90;;;;;;;18.18;53.57;100396.81;4978276;28;20042;-87
2022/05/24 11:07:26;;;;;;;1.45;0.70;;;;;;;18.21;52.68;100401.59;4991078;28;20037;-87
2022/05/24 11:10:05;;;;;;;4.57;0.60;;;;;;;18.48;53.69;100399.56;4992800;28;20556;-87
2022/05/24 11:12:38;;;;;;;2.60;1.02;;;;;;;18.44;54.22;100393.94;4990699;28;20537;-87
2022/05/24 11:15:15;;;;;;;2.80;0.90;;;;;;;18.35;53.70;100395.22;4994364;28;20029;-86
2022/05/24 11:17:40;;;;;;;3.08;0.98;;;;;;;18.76;55.39;100400.84;4976236;28;20100;-87
2022/05/24 11:20:07;;;;;;;9.05;4.45;;;;;;;18.83;52.71;100396.34;4989257;28;20025;-88
2022/05/24 11:22:41;;;;;;;4.78;1.15;;;;;;;19.05;52.85;100399.34;4989564;28;20038;-86
2022/05/24 11:25:28;;;;;;;2.20;0.82;;;;;;;19.45;51.85;100404.03;4995155;28;20064;-86
2022/05/24 11:28:14;;;;;;;3.95;1.17;;;;;;;19.16;51.94;100403.84;4992523;28;20121;-88
2022/05/24 11:30:41;;;;;;;2.30;0.98;;;;;;;19.30;52.23;100408.91;4980301;28;20081;-86
2022/05/24 11:33:14;;;;;;;2.90;0.80;;;;;;;19.49;52.87;100407.03;4994668;28;20566;-86
2022/05/24 11:35:43;;;;;;;3.58;1.02;;;;;;;19.81;52.68;100410.22;4977621;28;20033;-87
2022/05/24 11:38:35;;;;;;;6.25;0.93;;;;;;;19.65;51.40;100403.75;4975732;28;20546;-87
2022/05/24 11:41:12;;;;;;;2.42;0.70;;;;;;;19.58;51.35;100398.59;4974966;28;20083;-87
2022/05/24 11:43:44;;;;;;;3.45;1.02;;;;;;;19.73;52.71;100405.31;5008185;28;20046;-88
2022/05/24 11:46:14;;;;;;;2.08;1.02;;;;;;;19.40;49.96;100407.34;5005143;28;20045;-89
2022/05/24 11:48:44;;;;;;;6.32;0.73;;;;;;;19.33;51.33;100416.38;4977603;28;20042;-87
2022/05/24 11:51:33;;;;;;;3.42;1.10;;;;;;;19.09;51.31;100416.25;4992240;28;20089;-88
2022/05/24 11:54:01;;;;;;;2.50;0.70;;;;;;;19.06;51.39;100424.56;4974042;28;20739;-86
2022/05/24 11:56:29;;;;;;;8.55;1.27;;;;;;;18.98;52.55;100432.75;4990521;28;20143;-88
2022/05/24 11:59:11;;;;;;;7.60;1.08;;;;;;;18.58;60.92;100446.28;5005661;28;20030;-90
2022/05/24 12:01:38;;;;;;;2.33;0.90;;;;;;;18.03;64.52;100442.53;5000868;28;20160;-89
2022/05/24 12:10:09;;;;;;;1.77;0.40;;;;;;;18.63;67.44;100441.19;5008489;28;20536;-85
2022/05/24 12:12:37;;;;;;;1.25;0.40;;;;;;;19.03;66.02;100440.78;4991409;28;20034;-86
2022/05/24 12:15:44;;;;;;;1.25;0.60;;;;;;;19.13;62.84;100442.88;4988912;28;20025;-87
2022/05/24 12:18:11;;;;;;;0.65;0.50;;;;;;;18.98;61.83;100443.25;4989438;28;20030;-88
2022/05/24 12:20:36;;;;;;;2.10;0.55;;;;;;;19.05;61.72;100451.88;4986040;28;20041;-87
2022/05/24 12:23:05;;;;;;;2.55;0.60;;;;;;;18.88;61.77;100459.53;4987152;28;20128;-88
2022/05/24 12:25:54;;;;;;;3.92;0.57;;;;;;;18.76;59.71;100458.63;4975472;28;20061;-86
2022/05/24 12:28:22;;;;;;;0.70;0.52;;;;;;;18.58;59.06;100462.84;4991358;28;20093;-86
2022/05/24 12:30:49;;;;;;;2.15;0.63;;;;;;;19.05;62.40;100465.81;5010628;28;20077;-87